createdAt,value
2018-03-11T00:00:38.983Z,94843.89
2018-03-11T00:03:05.722Z,94840.37
2018-03-11T00:05:32.432Z,94844.27
2018-03-11T00:07:59.065Z,94834.48
2018-03-11T00:10:25.736Z,94827.94
2018-03-11T00:12:52.480Z,94833.73
2018-03-11T00:15:19.146Z,94828.19
2018-03-11T00:17:45.840Z,94829.48
2018-03-11T00:20:12.550Z,94830.70
2018-03-11T00:22:39.196Z,94832.09
2018-03-11T00:25:05.894Z,94835.02
2018-03-11T00:27:32.651Z,94831.36
2018-03-11T00:29:59.267Z,94832.12
2018-03-11T00:32:26.021Z,94838.53
2018-03-11T00:34:52.650Z,94834.53
2018-03-11T00:37:19.358Z,94839.80
2018-03-11T00:39:46.066Z,94838.31
2018-03-11T00:42:12.781Z,94836.58
2018-03-11T00:44:39.429Z,94838.31
2018-03-11T00:47:06.226Z,94840.93
2018-03-11T00:49:32.846Z,94836.93
2018-03-11T00:51:59.488Z,94835.04
2018-03-11T00:54:26.164Z,94826.64
2018-03-11T00:56:52.869Z,94820.24
2018-03-11T00:59:19.613Z,94823.99
2018-03-11T01:01:46.324Z,94823.86
2018-03-11T01:04:13.006Z,94824.88
2018-03-11T01:06:39.662Z,94824.90
2018-03-11T01:09:06.364Z,94819.61
2018-03-11T01:11:33.004Z,94830.69
2018-03-11T01:13:59.724Z,94831.80
2018-03-11T01:16:26.433Z,94831.19
2018-03-11T01:18:53.091Z,94827.67
2018-03-11T01:21:19.773Z,94826.19
2018-03-11T01:23:46.420Z,94827.92
2018-03-11T01:26:13.128Z,94822.51
2018-03-11T01:28:39.799Z,94825.53
2018-03-11T01:31:06.604Z,94819.27
2018-03-11T01:33:33.270Z,94818.98
2018-03-11T01:35:59.885Z,94820.78
2018-03-11T01:38:26.663Z,94826.06
2018-03-11T01:40:53.340Z,94815.27
2018-03-11T01:43:20.055Z,94814.53
2018-03-11T01:45:46.703Z,94814.77
2018-03-11T01:48:13.365Z,94815.89
2018-03-11T01:50:40.048Z,94810.26
2018-03-11T01:53:06.794Z,94802.08
2018-03-11T01:55:33.509Z,94798.30
2018-03-11T01:58:00.169Z,94793.30
2018-03-11T02:00:26.842Z,94791.16
2018-03-11T02:02:53.493Z,94790.78
2018-03-11T02:05:20.265Z,94786.13
2018-03-11T02:07:46.892Z,94792.19
2018-03-11T02:10:13.653Z,94779.23
2018-03-11T02:12:40.288Z,94788.06
2018-03-11T02:15:06.950Z,94792.19
2018-03-11T02:17:33.625Z,94794.43
2018-03-11T02:20:00.333Z,94784.30
2018-03-11T02:22:27.075Z,94787.94
2018-03-11T02:24:53.752Z,94787.81
2018-03-11T02:27:20.457Z,94791.11
2018-03-11T02:29:47.127Z,94794.13
2018-03-11T02:32:13.765Z,94795.39
2018-03-11T02:34:40.429Z,94791.11
2018-03-11T02:37:07.134Z,94799.31
2018-03-11T02:39:33.771Z,94799.19
2018-03-11T02:42:00.557Z,94806.48
2018-03-11T02:44:27.216Z,94798.96
2018-03-11T02:46:53.961Z,94792.90
2018-03-11T02:49:20.599Z,94789.13
2018-03-11T02:51:47.317Z,94790.91
2018-03-11T02:54:13.947Z,94797.20
2018-03-11T02:56:40.726Z,94793.17
2018-03-11T02:59:07.391Z,94789.91
2018-03-11T03:01:34.058Z,94779.23
2018-03-11T03:04:00.725Z,94786.66
2018-03-11T03:06:27.389Z,94792.31
2018-03-11T03:08:54.062Z,94787.13
2018-03-11T03:11:20.726Z,94789.07
2018-03-11T03:13:47.457Z,94801.39
2018-03-11T03:16:14.163Z,94800.36
2018-03-11T03:18:40.834Z,94796.73
2018-03-11T03:21:07.503Z,94800.79
2018-03-11T03:23:34.244Z,94801.42
2018-03-11T03:26:01.013Z,94802.05
2018-03-11T03:28:27.648Z,94805.28
2018-03-11T03:30:54.386Z,94815.50
2018-03-11T03:33:20.994Z,94808.56
2018-03-11T03:35:47.710Z,94814.59
2018-03-11T03:38:14.380Z,94804.91
2018-03-11T03:40:41.085Z,94811.09
2018-03-11T03:43:07.725Z,94815.99
2018-03-11T03:45:34.422Z,94817.53
2018-03-11T03:48:01.091Z,94818.78
2018-03-11T03:50:27.725Z,94810.36
2018-03-11T03:52:54.387Z,94809.45
2018-03-11T03:55:21.071Z,94816.02
2018-03-11T03:57:47.744Z,94822.58
2018-03-11T04:00:14.497Z,94810.63
2018-03-11T04:02:41.209Z,94818.17
2018-03-11T04:05:07.847Z,94816.92
2018-03-11T04:07:34.561Z,94812.54
2018-03-11T04:10:01.214Z,94816.41
2018-03-11T04:12:27.858Z,94806.25
2018-03-11T04:14:54.556Z,94810.52
2018-03-11T04:17:21.203Z,94800.84
2018-03-11T04:19:47.876Z,94808.03
2018-03-11T04:22:14.544Z,94814.57
2018-03-11T04:24:41.245Z,94817.20
2018-03-11T04:27:07.914Z,94819.97
2018-03-11T04:29:34.554Z,94821.20
2018-03-11T04:32:01.232Z,94813.45
2018-03-11T04:34:27.932Z,94815.73
2018-03-11T04:36:54.647Z,94822.13
2018-03-11T04:39:21.304Z,94820.88
2018-03-11T04:41:48.019Z,94818.13
2018-03-11T04:44:14.688Z,94822.66
2018-03-11T04:46:41.319Z,94827.18
2018-03-11T04:49:07.979Z,94819.76
2018-03-11T04:51:34.661Z,94813.84
2018-03-11T04:54:01.324Z,94820.88
2018-03-11T04:56:28.091Z,94825.37
2018-03-11T04:58:54.751Z,94821.61
2018-03-11T05:01:21.417Z,94821.34
2018-03-11T05:03:48.095Z,94826.47
2018-03-11T05:06:14.799Z,94823.06
2018-03-11T05:08:41.483Z,94824.27
2018-03-11T05:11:08.108Z,94826.92
2018-03-11T05:13:34.798Z,94830.40
2018-03-11T05:16:01.474Z,94835.77
2018-03-11T05:18:28.178Z,94838.74
2018-03-11T05:20:54.886Z,94839.22
2018-03-11T05:23:21.611Z,94838.16
2018-03-11T05:25:48.370Z,94846.45
2018-03-11T05:28:15.033Z,94846.39
2018-03-11T05:30:41.752Z,94852.91
2018-03-11T05:33:08.542Z,94847.22
2018-03-11T05:35:35.243Z,94860.64
2018-03-11T05:38:01.948Z,94864.73
2018-03-11T05:40:28.643Z,94867.33
2018-03-11T05:42:55.305Z,94870.95
2018-03-11T05:45:22.074Z,94862.16
2018-03-11T05:47:48.786Z,94864.75
2018-03-11T05:50:15.460Z,94860.78
2018-03-11T05:52:42.162Z,94868.02
2018-03-11T05:55:08.835Z,94864.95
2018-03-11T05:57:35.531Z,94876.52
2018-03-11T06:00:02.245Z,94887.31
2018-03-11T06:02:28.963Z,94884.48
2018-03-11T06:04:55.637Z,94885.98
2018-03-11T06:07:22.299Z,94879.36
2018-03-11T06:09:48.975Z,94881.52
2018-03-11T06:12:15.729Z,94881.86
2018-03-11T06:14:42.422Z,94890.05
2018-03-11T06:17:09.044Z,94890.73
2018-03-11T06:19:35.709Z,94891.48
2018-03-11T06:22:02.417Z,94896.56
2018-03-11T06:24:29.219Z,94897.03
2018-03-11T06:26:55.896Z,94896.87
2018-03-11T06:29:22.576Z,94897.58
2018-03-11T06:31:49.309Z,94897.28
2018-03-11T06:34:15.955Z,94903.42
2018-03-11T06:36:42.638Z,94903.43
2018-03-11T06:39:09.268Z,94899.01
2018-03-11T06:41:35.939Z,94892.69
2018-03-11T06:44:02.588Z,94896.02
2018-03-11T06:46:29.232Z,94893.70
2018-03-11T06:48:55.910Z,94895.96
2018-03-11T06:51:22.543Z,94896.25
2018-03-11T06:53:49.258Z,94900.84
2018-03-11T06:56:15.904Z,94898.43
2018-03-11T06:58:44.744Z,94899.48
2018-03-11T07:01:09.207Z,94900.75
2018-03-11T07:03:35.882Z,94902.05
2018-03-11T07:06:02.568Z,94897.23
2018-03-11T07:08:29.246Z,94899.34
2018-03-11T07:10:55.950Z,94899.93
2018-03-11T07:13:22.541Z,94893.86
2018-03-11T07:15:49.205Z,94889.27
2018-03-11T07:18:15.814Z,94885.74
2018-03-11T07:20:42.499Z,94890.52
2018-03-11T07:23:09.135Z,94889.96
2018-03-11T07:25:35.814Z,94889.20
2018-03-11T07:28:02.427Z,94883.98
2018-03-11T07:30:29.067Z,94883.77
2018-03-11T07:32:55.741Z,94878.72
2018-03-11T07:35:22.425Z,94880.36
2018-03-11T07:37:49.034Z,94882.20
2018-03-11T07:40:15.672Z,94878.50
2018-03-11T07:42:42.327Z,94880.91
2018-03-11T07:45:08.991Z,94880.27
2018-03-11T07:47:35.718Z,94882.30
2018-03-11T07:50:02.371Z,94883.28
2018-03-11T07:52:28.976Z,94866.54
2018-03-11T07:54:55.654Z,94879.37
2018-03-11T07:57:22.340Z,94876.73
2018-03-11T07:59:49.000Z,94876.64
2018-03-11T08:02:15.600Z,94881.61
2018-03-11T08:04:42.335Z,94888.34
2018-03-11T08:07:09.036Z,94879.37
2018-03-11T08:09:35.637Z,94877.35
2018-03-11T08:12:02.303Z,94881.27
2018-03-11T08:14:28.969Z,94874.72
2018-03-11T08:16:55.589Z,94877.52
2018-03-11T08:19:22.245Z,94874.22
2018-03-11T08:21:48.914Z,94877.75
2018-03-11T08:24:15.634Z,94872.48
2018-03-11T08:26:42.270Z,94876.91
2018-03-11T08:29:08.919Z,94871.96
2018-03-11T08:31:35.607Z,94871.16
2018-03-11T08:34:02.241Z,94871.53
2018-03-11T08:36:28.919Z,94871.02
2018-03-11T08:38:55.544Z,94868.56
2018-03-11T08:41:22.182Z,94873.48
2018-03-11T08:43:48.816Z,94868.96
2018-03-11T08:46:15.526Z,94866.25
2018-03-11T08:48:42.156Z,94859.97
2018-03-11T08:51:08.750Z,94857.45
2018-03-11T08:53:35.403Z,94861.30
2018-03-11T08:56:02.078Z,94860.28
2018-03-11T08:58:28.705Z,94861.36
2018-03-11T09:00:55.397Z,94858.09
2018-03-11T09:03:22.151Z,94850.81
2018-03-11T09:05:48.750Z,94848.55
2018-03-11T09:08:15.431Z,94849.80
2018-03-11T09:10:42.086Z,94848.62
2018-03-11T09:13:08.714Z,94845.89
2018-03-11T09:15:35.416Z,94845.72
2018-03-11T09:18:02.008Z,94840.59
2018-03-11T09:20:28.772Z,94845.77
2018-03-11T09:22:55.413Z,94852.39
2018-03-11T09:25:22.055Z,94845.02
2018-03-11T09:27:48.722Z,94851.70
2018-03-11T09:30:15.362Z,94846.95
2018-03-11T09:32:42.022Z,94834.52
2018-03-11T09:35:08.666Z,94848.28
2018-03-11T09:37:35.317Z,94843.98
2018-03-11T09:40:01.960Z,94843.66
2018-03-11T09:42:28.605Z,94843.30
2018-03-11T09:44:55.244Z,94838.55
2018-03-11T09:47:21.915Z,94846.84
2018-03-11T09:49:48.535Z,94840.95
2018-03-11T09:52:15.302Z,94842.98
2018-03-11T09:54:41.867Z,94831.11
2018-03-11T09:57:08.544Z,94830.95
2018-03-11T09:59:35.182Z,94839.94
2018-03-11T10:02:01.810Z,94831.86
2018-03-11T10:04:28.489Z,94825.30
2018-03-11T10:06:55.095Z,94823.91
2018-03-11T10:09:21.780Z,94823.27
2018-03-11T10:11:48.429Z,94809.69
2018-03-11T10:14:15.029Z,94817.66
2018-03-11T10:16:41.701Z,94815.00
2018-03-11T10:19:08.299Z,94806.80
2018-03-11T10:21:34.987Z,94810.92
2018-03-11T10:24:01.620Z,94804.21
2018-03-11T10:26:28.297Z,94805.66
2018-03-11T10:28:54.924Z,94803.45
2018-03-11T10:31:21.539Z,94806.09
2018-03-11T10:33:48.212Z,94805.98
2018-03-11T10:36:14.855Z,94799.23
2018-03-11T10:38:41.456Z,94794.98
2018-03-11T10:41:08.094Z,94792.60
2018-03-11T10:43:34.764Z,94786.73
2018-03-11T10:46:01.435Z,94782.82
2018-03-11T10:48:28.155Z,94785.72
2018-03-11T10:50:54.889Z,94773.09
2018-03-11T10:53:21.436Z,94763.06
2018-03-11T10:55:48.090Z,94769.75
2018-03-11T10:58:14.732Z,94761.20
2018-03-11T11:00:41.371Z,94758.42
2018-03-11T11:03:08.012Z,94759.64
2018-03-11T11:05:34.755Z,94752.44
2018-03-11T11:08:01.391Z,94753.68
2018-03-11T11:10:28.067Z,94756.46
2018-03-11T11:12:54.741Z,94753.77
2018-03-11T11:15:21.395Z,94743.72
2018-03-11T11:17:48.063Z,94741.20
2018-03-11T11:20:14.703Z,94735.27
2018-03-11T11:22:41.311Z,94732.92
2018-03-11T11:25:07.976Z,94730.52
2018-03-11T11:27:34.625Z,94727.92
2018-03-11T11:30:01.258Z,94725.02
2018-03-11T11:32:27.904Z,94726.27
2018-03-11T11:34:54.499Z,94716.86
2018-03-11T11:37:21.176Z,94713.01
2018-03-11T11:39:47.819Z,94707.97
2018-03-11T11:42:14.464Z,94704.88
2018-03-11T11:44:41.138Z,94701.26
2018-03-11T11:47:07.817Z,94705.63
2018-03-11T11:49:34.499Z,94697.12
2018-03-11T11:52:01.133Z,94695.64
2018-03-11T11:54:27.778Z,94690.72
2018-03-11T11:56:54.381Z,94687.45
2018-03-11T11:59:21.063Z,94684.30
2018-03-11T12:01:47.714Z,94684.90
2018-03-11T12:04:15.765Z,94678.64
2018-03-11T12:06:41.035Z,94679.86
2018-03-11T12:09:07.696Z,94675.11
2018-03-11T12:11:34.342Z,94682.06
2018-03-11T12:14:00.954Z,94680.55
2018-03-11T12:16:27.627Z,94676.13
2018-03-11T12:18:54.255Z,94663.62
2018-03-11T12:21:20.901Z,94665.13
2018-03-11T12:23:47.512Z,94664.42
2018-03-11T12:26:14.151Z,94660.69
2018-03-11T12:28:40.830Z,94653.19
2018-03-11T12:31:07.458Z,94651.86
2018-03-11T12:33:34.132Z,94652.92
2018-03-11T12:36:00.736Z,94648.38
2018-03-11T12:38:27.444Z,94649.45
2018-03-11T12:40:54.085Z,94643.31
2018-03-11T12:43:20.682Z,94637.84
2018-03-11T12:45:47.357Z,94623.81
2018-03-11T12:48:13.959Z,94636.19
2018-03-11T12:50:40.591Z,94629.80
2018-03-11T12:53:07.265Z,94628.98
2018-03-11T12:55:33.898Z,94624.28
2018-03-11T12:58:00.542Z,94618.98
2018-03-11T13:00:27.141Z,94618.88
2018-03-11T13:02:53.822Z,94615.27
2018-03-11T13:05:20.425Z,94610.53
2018-03-11T13:07:47.101Z,94611.39
2018-03-11T13:10:13.704Z,94610.27
2018-03-11T13:12:40.335Z,94604.65
2018-03-11T13:15:06.970Z,94604.83
2018-03-11T13:17:33.637Z,94608.99
2018-03-11T13:20:00.243Z,94607.31
2018-03-11T13:22:26.940Z,94611.86
2018-03-11T13:24:53.627Z,94615.77
2018-03-11T13:27:20.255Z,94605.09
2018-03-11T13:29:46.882Z,94602.99
2018-03-11T13:32:13.599Z,94601.03
2018-03-11T13:34:40.233Z,94599.95
2018-03-11T13:37:06.904Z,94599.58
2018-03-11T13:39:33.545Z,94595.30
2018-03-11T13:42:00.187Z,94590.92
2018-03-11T13:44:26.848Z,94597.44
2018-03-11T13:46:53.492Z,94594.22
2018-03-11T13:49:20.165Z,94591.13
2018-03-11T13:51:46.762Z,94596.36
2018-03-11T13:54:13.447Z,94589.73
2018-03-11T13:56:40.088Z,94595.41
2018-03-11T13:59:06.765Z,94587.15
2018-03-11T14:01:33.437Z,94583.27
2018-03-11T14:04:00.116Z,94577.86
2018-03-11T14:06:26.735Z,94579.94
2018-03-11T14:08:53.469Z,94574.06
2018-03-11T14:11:20.143Z,94575.95
2018-03-11T14:13:46.777Z,94578.88
2018-03-11T14:16:13.417Z,94576.36
2018-03-11T14:18:40.025Z,94574.06
2018-03-11T14:21:06.715Z,94570.91
2018-03-11T14:23:33.342Z,94571.92
2018-03-11T14:26:00.066Z,94572.67
2018-03-11T14:28:26.688Z,94569.78
2018-03-11T14:30:53.367Z,94560.72
2018-03-11T14:33:20.004Z,94562.00
2018-03-11T14:35:46.681Z,94562.91
2018-03-11T14:38:13.275Z,94558.36
2018-03-11T14:40:40.012Z,94541.38
2018-03-11T14:43:06.620Z,94543.58
2018-03-11T14:45:33.258Z,94547.45
2018-03-11T14:47:59.940Z,94546.81
2018-03-11T14:50:26.653Z,94543.99
2018-03-11T14:52:53.291Z,94545.13
2018-03-11T14:55:19.978Z,94545.76
2018-03-11T14:57:46.576Z,94544.06
2018-03-11T15:00:13.206Z,94550.86
2018-03-11T15:02:39.867Z,94545.94
2018-03-11T15:05:06.504Z,94546.95
2018-03-11T15:07:33.149Z,94546.38
2018-03-11T15:09:59.793Z,94549.19
2018-03-11T15:12:26.531Z,94555.77
2018-03-11T15:14:53.147Z,94550.50
2018-03-11T15:17:19.813Z,94547.72
2018-03-11T15:19:46.418Z,94544.34
2018-03-11T15:22:13.093Z,94548.77
2018-03-11T15:24:39.862Z,94550.45
2018-03-11T15:27:06.460Z,94549.70
2018-03-11T15:29:33.144Z,94549.14
2018-03-11T15:31:59.775Z,94546.74
2018-03-11T15:34:26.416Z,94547.38
2018-03-11T15:36:53.106Z,94545.53
2018-03-11T15:39:19.747Z,94550.34
2018-03-11T15:41:46.404Z,94547.82
2018-03-11T15:44:13.034Z,94555.03
2018-03-11T15:46:39.738Z,94549.47
2018-03-11T15:49:07.675Z,94544.58
2018-03-11T15:51:33.214Z,94545.75
2018-03-11T15:53:59.861Z,94543.34
2018-03-11T15:56:26.525Z,94541.05
2018-03-11T15:58:53.197Z,94543.52
2018-03-11T16:01:19.841Z,94547.31
2018-03-11T16:03:46.520Z,94554.03
2018-03-11T16:06:13.162Z,94547.08
2018-03-11T16:08:39.808Z,94546.97
2018-03-11T16:11:06.807Z,94550.50
2018-03-11T16:13:33.478Z,94548.09
2018-03-11T16:16:00.150Z,94558.20
2018-03-11T16:18:26.799Z,94563.64
2018-03-11T16:20:53.434Z,94559.39
2018-03-11T16:23:20.120Z,94557.07
2018-03-11T16:25:46.758Z,94557.63
2018-03-11T16:28:13.445Z,94562.58
2018-03-11T16:30:40.107Z,94568.25
2018-03-11T16:33:06.751Z,94568.05
2018-03-11T16:35:33.453Z,94564.14
2018-03-11T16:38:00.091Z,94566.49
2018-03-11T16:40:26.737Z,94564.20
2018-03-11T16:42:53.372Z,94566.12
2018-03-11T16:45:20.088Z,94569.53
2018-03-11T16:47:46.735Z,94562.88
2018-03-11T16:50:13.366Z,94565.91
2018-03-11T16:52:40.000Z,94571.73
2018-03-11T16:55:06.673Z,94575.53
2018-03-11T16:57:33.272Z,94578.83
2018-03-11T16:59:59.976Z,94571.53
2018-03-11T17:02:26.625Z,94565.69
2018-03-11T17:04:53.338Z,94571.80
2018-03-11T17:07:19.981Z,94578.36
2018-03-11T17:09:46.619Z,94578.48
2018-03-11T17:12:13.268Z,94581.66
2018-03-11T17:14:39.906Z,94578.88
2018-03-11T17:17:09.650Z,94589.36
2018-03-11T17:19:36.300Z,94583.48
2018-03-11T17:22:02.975Z,94582.25
2018-03-11T17:24:29.617Z,94588.55
2018-03-11T17:26:56.360Z,94586.70
2018-03-11T17:29:22.993Z,94578.62
2018-03-11T17:31:49.599Z,94585.69
2018-03-11T17:34:16.242Z,94576.66
2018-03-11T17:36:42.964Z,94585.89
2018-03-11T17:39:09.600Z,94584.27
2018-03-11T17:41:36.233Z,94595.64
2018-03-11T17:44:02.882Z,94586.94
2018-03-11T17:46:29.521Z,94596.54
2018-03-11T17:48:56.171Z,94593.94
2018-03-11T17:51:22.832Z,94602.09
2018-03-11T17:53:49.434Z,94609.41
2018-03-11T17:56:16.075Z,94604.67
2018-03-11T17:58:42.782Z,94606.84
2018-03-11T18:01:09.386Z,94603.55
2018-03-11T18:03:36.031Z,94611.18
2018-03-11T18:06:02.698Z,94604.75
2018-03-11T18:08:29.305Z,94607.16
2018-03-11T18:10:55.946Z,94608.80
2018-03-11T18:13:22.672Z,94606.46
2018-03-11T18:15:49.304Z,94611.27
2018-03-11T18:18:15.997Z,94612.88
2018-03-11T18:20:42.614Z,94619.97
2018-03-11T18:23:09.272Z,94623.23
2018-03-11T18:25:35.974Z,94622.11
2018-03-11T18:28:02.649Z,94623.76
2018-03-11T18:30:29.264Z,94628.20
2018-03-11T18:32:55.928Z,94628.73
2018-03-11T18:35:22.592Z,94627.08
2018-03-11T18:37:49.230Z,94631.39
2018-03-11T18:40:15.896Z,94633.01
2018-03-11T18:42:42.576Z,94632.95
2018-03-11T18:45:09.182Z,94634.08
2018-03-11T18:47:35.892Z,94627.14
2018-03-11T18:50:02.598Z,94629.05
2018-03-11T18:52:29.220Z,94637.63
2018-03-11T18:54:55.862Z,94637.38
2018-03-11T18:57:22.563Z,94633.09
2018-03-11T18:59:49.198Z,94639.28
2018-03-11T19:02:15.877Z,94633.15
2018-03-11T19:04:42.507Z,94640.09
2018-03-11T19:07:09.152Z,94650.30
2018-03-11T19:09:35.785Z,94644.77
2018-03-11T19:12:02.477Z,94644.51
2018-03-11T19:14:29.117Z,94651.25
2018-03-11T19:16:55.755Z,94645.95
2018-03-11T19:19:22.440Z,94648.90
2018-03-11T19:21:49.067Z,94665.38
2018-03-11T19:24:15.704Z,94663.24
2018-03-11T19:26:42.343Z,94658.33
2018-03-11T19:29:09.055Z,94654.70
2018-03-11T19:31:35.645Z,94652.40
2018-03-11T19:34:02.296Z,94652.31
2018-03-11T19:36:28.914Z,94655.23
2018-03-11T19:38:55.587Z,94661.91
2018-03-11T19:41:22.257Z,94665.95
2018-03-11T19:43:48.884Z,94671.50
2018-03-11T19:46:15.525Z,94676.30
2018-03-11T19:48:42.157Z,94680.37
2018-03-11T19:51:08.816Z,94675.98
2018-03-11T19:53:35.487Z,94688.07
2018-03-11T19:56:02.155Z,94681.32
2018-03-11T19:58:28.755Z,94674.64
2018-03-11T20:00:55.404Z,94678.17
2018-03-11T20:03:22.078Z,94681.84
2018-03-11T20:05:48.675Z,94676.29
2018-03-11T20:08:15.317Z,94681.70
2018-03-11T20:10:41.951Z,94683.48
2018-03-11T20:13:08.596Z,94677.94
2018-03-11T20:15:35.258Z,94689.20
2018-03-11T20:18:01.903Z,94689.70
2018-03-11T20:20:28.545Z,94692.23
2018-03-11T20:22:55.154Z,94696.02
2018-03-11T20:25:21.789Z,94701.48
2018-03-11T20:27:48.464Z,94697.20
2018-03-11T20:30:15.070Z,94695.81
2018-03-11T20:32:41.707Z,94697.58
2018-03-11T20:35:08.347Z,94695.65
2018-03-11T20:37:34.980Z,94695.27
2018-03-11T20:40:01.616Z,94695.06
2018-03-11T20:42:28.282Z,94685.78
2018-03-11T20:44:54.901Z,94703.91
2018-03-11T20:47:21.566Z,94696.87
2018-03-11T20:49:48.163Z,94695.80
2018-03-11T20:52:14.847Z,94707.16
2018-03-11T20:54:41.488Z,94697.94
2018-03-11T20:57:08.089Z,94693.02
2018-03-11T20:59:34.741Z,94696.95
2018-03-11T21:02:01.693Z,94691.89
2018-03-11T21:04:28.344Z,94683.70
2018-03-11T21:06:54.977Z,94687.98
2018-03-11T21:09:21.613Z,94684.20
2018-03-11T21:11:48.263Z,94686.48
2018-03-11T21:14:14.905Z,94688.30
2018-03-11T21:16:41.547Z,94691.06
2018-03-11T21:19:08.159Z,94696.50
2018-03-11T21:21:34.837Z,94689.84
2018-03-11T21:24:01.448Z,94690.73
2018-03-11T21:26:28.131Z,94690.36
2018-03-11T21:28:54.777Z,94691.95
2018-03-11T21:31:21.419Z,94687.09
2018-03-11T21:33:48.061Z,94683.59
2018-03-11T21:36:14.656Z,94691.55
2018-03-11T21:38:41.303Z,94685.98
2018-03-11T21:41:07.936Z,94688.10
2018-03-11T21:43:34.578Z,94685.05
2018-03-11T21:46:01.251Z,94689.80
2018-03-11T21:48:27.922Z,94692.69
2018-03-11T21:50:54.579Z,94693.11
2018-03-11T21:53:21.224Z,94691.61
2018-03-11T21:55:47.863Z,94688.70
2018-03-11T21:58:14.505Z,94684.30
2018-03-11T22:00:41.144Z,94681.52
2018-03-11T22:03:07.787Z,94680.13
2018-03-11T22:05:34.423Z,94680.05
2018-03-11T22:08:01.164Z,94681.45
2018-03-11T22:10:27.841Z,94686.86
2018-03-11T22:12:54.492Z,94679.17
2018-03-11T22:15:21.176Z,94675.90
2018-03-11T22:17:47.900Z,94683.70
2018-03-11T22:20:14.591Z,94678.30
2018-03-11T22:22:41.274Z,94679.59
2018-03-11T22:25:07.983Z,94670.77
2018-03-11T22:27:34.613Z,94671.78
2018-03-11T22:30:01.287Z,94681.87
2018-03-11T22:32:27.968Z,94668.26
2018-03-11T22:34:54.633Z,94666.92
2018-03-11T22:37:21.317Z,94664.90
2018-03-11T22:39:47.952Z,94666.66
2018-03-11T22:42:14.625Z,94665.27
2018-03-11T22:44:41.269Z,94665.64
2018-03-11T22:47:07.956Z,94672.59
2018-03-11T22:49:34.603Z,94680.17
2018-03-11T22:52:01.237Z,94671.34
2018-03-11T22:54:27.962Z,94676.51
2018-03-11T22:56:54.636Z,94676.03
2018-03-11T22:59:21.232Z,94678.17
2018-03-11T23:01:47.904Z,94678.08
2018-03-11T23:04:14.580Z,94678.42
2018-03-11T23:06:41.210Z,94682.50
2018-03-11T23:09:07.896Z,94682.33
2018-03-11T23:11:34.524Z,94684.64
2018-03-11T23:14:01.233Z,94679.22
2018-03-11T23:16:27.873Z,94682.75
2018-03-11T23:18:54.572Z,94685.15
2018-03-11T23:21:21.206Z,94684.39
2018-03-11T23:23:47.834Z,94682.16
2018-03-11T23:26:14.482Z,94680.49
2018-03-11T23:28:41.145Z,94680.12
2018-03-11T23:31:07.775Z,94679.77
2018-03-11T23:33:34.449Z,94673.47
2018-03-11T23:36:01.083Z,94678.77
2018-03-11T23:38:27.768Z,94675.63
2018-03-11T23:40:54.380Z,94665.92
2018-03-11T23:43:21.089Z,94670.36
2018-03-11T23:45:47.688Z,94666.08
2018-03-11T23:48:14.358Z,94659.27
2018-03-11T23:50:40.996Z,94654.12
2018-03-11T23:53:07.675Z,94651.09
2018-03-11T23:55:34.354Z,94652.69
2018-03-11T23:58:01.036Z,94658.14
